• Join FlightAware (Why Join?)
  • Login
  • US Flag 
10:41PM EST


 

Airport Tracker/Info


-or-


 

Live Flight TrackerFlight Track Log ✈ AAL984 ✈ 14-May-2013 ✈ SUMU / MVD - KMIA

Flight Track Log - Related Links

Times and Time Zones

All times are in EDT time to prevent confusion due to time zone crossing. See the AAL984 flight status page for this flight to view local times or setup timezone preferences in your user account.

Time Position Orientation Groundspeed Altitude Reporting Facility
EDT Latitude Longitude Course Direction KTS MPH feet Rate Location/Type
08:12PM -34.8390 -56.0860 269° West 201 231 2,000  Level FlightAware
08:13PM -34.8250 -56.0980 325° Northwest 213 245 2,500 1,680 Climbing FlightAware
08:13PM -34.7740 -56.1100 349° North 247 284 4,000 2,220 Climbing FlightAware
08:14PM -34.7320 -56.1280 341° North 262 302 5,700 2,580 Climbing FlightAware
08:14PM -34.7170 -56.1380 331° Northwest 263 303 6,400 2,400 Climbing FlightAware
08:15PM -34.6950 -56.1510 334° Northwest 268 308 7,300 2,880 Climbing FlightAware
08:15PM -34.6580 -56.1630 345° North 276 318 8,800 3,000 Climbing FlightAware
08:15PM -34.6320 -56.1700 348° North 277 319 9,800 2,520 Climbing FlightAware
08:16PM -34.5500 -56.1980 344° North 305 351 11,800 2,520 Climbing FlightAware
08:18PM -34.4130 -56.2480 343° North 337 388 16,000 2,700 Climbing FlightAware
08:19PM -34.3480 -56.2710 344° North 336 387 18,100 2,460 Climbing FlightAware
08:20PM -34.2630 -56.3020 343° North 349 402 20,100 2,100 Climbing FlightAware
08:20PM -34.2000 -56.3240 344° North 357 411 21,500 2,040 Climbing FlightAware
08:21PM -34.1310 -56.3480 344° North 364 419 23,000 2,040 Climbing FlightAware
08:22PM -34.0640 -56.3720 343° North 371 427 24,400 1,860 Climbing FlightAware
08:22PM -33.9890 -56.3980 344° North 376 433 25,700 1,680 Climbing FlightAware
08:23PM -33.9210 -56.4210 344° North 383 441 26,800 1,620 Climbing FlightAware
08:24PM -33.8540 -56.4440 344° North 389 448 27,900 840 Climbing FlightAware
08:24PM -33.7740 -56.4720 344° North 414 476 28,000 420 Climbing FlightAware
08:25PM -33.6720 -56.5070 344° North 415 478 28,600 720 Climbing FlightAware
08:26PM -33.5930 -56.5340 344° North 407 468 29,200 960 Climbing FlightAware
08:27PM -33.5140 -56.5620 344° North 399 459 30,000 900 Climbing FlightAware
08:27PM -33.4520 -56.5830 344° North 399 459 30,500 660 Climbing FlightAware
08:28PM -33.3690 -56.6120 344° North 403 464 31,000 300 Climbing FlightAware
08:29PM -33.2850 -56.6410 344° North 408 470 31,000  Level FlightAware
08:30PM -33.2130 -56.6650 344° North 414 476 31,000  Level FlightAware
08:30PM -33.1300 -56.6930 344° North 414 476 31,000  Level FlightAware
08:31PM -33.0600 -56.7170 344° North 412 474 31,000  Level FlightAware
08:32PM -32.9820 -56.7440 344° North 412 474 31,000  Level FlightAware
08:32PM -32.9060 -56.7710 343° North 412 474 31,000  Level FlightAware
08:33PM -32.8410 -56.7920 345° North 414 476 31,000  Level FlightAware
08:34PM -32.7530 -56.8220 344° North 414 476 31,000  Level FlightAware
08:34PM -32.6900 -56.8430 344° North 414 476 31,000  Level FlightAware
08:35PM -32.6270 -56.8640 344° North 414 476 31,000  Level FlightAware
08:36PM -32.5100 -56.9030 344° North 417 480 31,000  Level FlightAware
08:37PM -32.4180 -56.9350 344° North 418 481 31,000  Level FlightAware
08:37PM -32.3550 -56.9560 344° North 418 481 31,000  Level FlightAware
08:38PM -32.2560 -56.9890 344° North 419 482 31,000  Level FlightAware
08:39PM -32.1740 -57.0160 344° North 418 481 31,000  Level FlightAware
08:40PM -32.0960 -57.0420 344° North 420 483 31,000  Level FlightAware
08:40PM -32.0050 -57.0730 344° North 420 483 31,000  Level FlightAware
08:41PM -31.9410 -57.0940 344° North 420 483 31,000  Level FlightAware
08:42PM -31.8620 -57.1210 344° North 420 483 31,000  Level FlightAware
08:43PM -31.7980 -57.1420 344° North 420 483 31,000  Level FlightAware
08:43PM -31.7350 -57.1640 343° North 420 483 31,000  Level FlightAware
08:44PM -31.6710 -57.1850 344° North 420 483 31,000  Level FlightAware
08:45PM -31.6080 -57.2060 344° North 420 483 31,000  Level FlightAware
08:45PM -31.5280 -57.2330 344° North 420 483 31,000  Level FlightAware
08:46PM -31.4650 -57.2550 343° North 420 483 31,000  Level FlightAware
08:47PM -31.4010 -57.2760 344° North 420 483 31,000  Level FlightAware
08:47PM -31.3380 -57.2970 344° North 420 483 31,000  Level FlightAware
08:48PM -31.2740 -57.3180 344° North 420 483 31,000  Level FlightAware
08:49PM -31.2110 -57.3400 343° North 420 483 31,000  Level FlightAware
08:50PM -31.1320 -57.3660 344° North 420 483 31,000  Level FlightAware
08:52PM -30.9081 -57.4367 345° North  Level FlightAware Approximate
08:53PM -30.7892 -57.4742 345° North  Level FlightAware Approximate
08:54PM -30.6702 -57.5115 345° North  Level FlightAware Approximate
08:55PM -30.5513 -57.5487 345° North  Level FlightAware Approximate
08:56PM -30.4323 -57.5859 345° North  Level FlightAware Approximate
08:57PM -30.3134 -57.6230 345° North  Level FlightAware Approximate
08:58PM -30.1946 -57.6599 345° North  Level FlightAware Approximate
08:59PM -30.0759 -57.6967 345° North  Level FlightAware Approximate
08:59PM -29.8230 -57.6360 345° North 455 524 31,000  Level FlightAware
09:00PM -29.7330 -57.6340 North 454 522 31,000  Level FlightAware
09:01PM -29.6460 -57.6320 North 454 522 31,000  Level FlightAware
09:01PM -29.5620 -57.6300 North 454 522 31,000  Level FlightAware
09:02PM -29.4900 -57.6290 North 454 522 31,000  Level FlightAware
09:03PM -29.4190 -57.6270 North 454 522 31,000  Level FlightAware
09:03PM -29.2880 -57.6230 North 456 525 31,000  Level FlightAware
09:04PM -29.2040 -57.6220 North 458 527 31,000  Level FlightAware
09:05PM -29.1260 -57.6200 North 458 527 31,000  Level FlightAware
09:05PM -29.0540 -57.6180 North 458 527 31,000  Level FlightAware
09:06PM -28.9820 -57.6170 North 458 527 31,000  Level FlightAware
09:07PM -28.8490 -57.6130 North 459 528 31,000  Level FlightAware
09:08PM -28.7220 -57.6090 North 457 526 31,000  Level FlightAware
09:09PM -28.6370 -57.6070 North 456 525 31,000  Level FlightAware
09:09PM -28.5520 -57.6050 North 453 521 31,000  Level FlightAware
09:10PM -28.4430 -57.6030 North 452 520 31,000  Level FlightAware
09:11PM -28.3720 -57.6010 North 452 520 31,000  Level FlightAware
09:11PM -28.3010 -57.6000 North 452 520 31,000  Level FlightAware
09:12PM -28.2120 -57.5980 North 452 520 31,000  Level FlightAware
09:13PM -28.1410 -57.5970 North 452 520 31,000  Level FlightAware
09:14PM -28.0700 -57.5950 North 452 520 31,000  Level FlightAware
09:14PM -27.9990 -57.5940 North 452 520 31,000  Level FlightAware
09:15PM -27.8740 -57.6120 353° North 449 517 31,000  Level FlightAware
09:15PM -27.7910 -57.6240 353° North 448 516 31,000  Level FlightAware
09:16PM -27.7030 -57.6360 353° North 448 516 31,000  Level FlightAware
09:17PM -27.6350 -57.6470 352° North 448 516 31,000  Level FlightAware
09:17PM -27.5470 -57.6580 354° North 447 514 31,000  Level FlightAware
09:18PM -27.4620 -57.6720 352° North 447 514 31,000  Level FlightAware
09:19PM -27.3920 -57.6830 352° North 447 514 31,000  Level FlightAware
09:19PM -27.2810 -57.6940 355° North 454 522 31,000  Level FlightAware
09:20PM -27.2130 -57.6890 North 458 527 31,000  Level FlightAware
09:21PM -27.0850 -57.6710 North 460 529 31,000  Level FlightAware
09:22PM -27.0040 -57.6580 North 458 527 31,000  Level FlightAware
09:22PM -26.9170 -57.6440 North 461 531 31,000  Level FlightAware
09:23PM -26.8480 -57.6320 North 458 527 31,000  Level FlightAware
09:24PM -26.7350 -57.6170 North 456 525 31,000  Level FlightAware
09:24PM -26.6640 -57.6110 North 457 526 31,000  Level FlightAware
09:25PM -26.5570 -57.6040 North 456 525 31,000  Level FlightAware
09:26PM -26.4580 -57.5990 North 456 525 31,000  Level FlightAware
09:27PM -26.3760 -57.5990 360° North 453 521 31,000  Level FlightAware
09:27PM -26.3080 -57.6010 358° North 453 521 31,000  Level FlightAware
09:28PM -26.2090 -57.6020 359° North 453 521 31,000  Level FlightAware
09:29PM -26.1310 -57.6030 359° North 453 521 31,000  Level FlightAware
09:29PM -26.0340 -57.6030 360° North 452 520 31,000  Level FlightAware
09:30PM -25.9480 -57.6040 359° North 452 520 31,000  Level FlightAware
09:31PM -25.8770 -57.6060 359° North 452 520 31,000  Level FlightAware
09:31PM -25.8050 -57.6070 359° North 452 520 31,000  Level FlightAware
09:32PM -25.7340 -57.6090 359° North 452 520 31,000  Level FlightAware
09:33PM -25.6630 -57.6100 359° North 452 520 31,000  Level FlightAware
09:34PM -25.5740 -57.6120 359° North 452 520 31,000  Level FlightAware
09:34PM -25.5030 -57.6130 359° North 452 520 31,000  Level FlightAware
09:35PM -25.4320 -57.6140 359° North 452 520 31,000  Level FlightAware
09:36PM -25.3610 -57.6160 359° North 452 520 31,000  Level FlightAware
09:36PM -25.2900 -57.6170 359° North 452 520 31,000  Level FlightAware
09:37PM -25.2010 -57.6190 359° North 452 520 31,000  Level FlightAware
09:38PM -25.1300 -57.6200 359° North 452 520 31,000  Level FlightAware
09:38PM -25.0590 -57.6220 359° North 452 520 31,000  Level FlightAware
09:39PM -24.9880 -57.6230 359° North 452 520 31,000  Level FlightAware
09:40PM -24.6390 -57.6280 359° North 32,800  Climbing FlightAware
09:43PM -24.3837 -57.7590 335° Northwest  Level Estimated
09:44PM -24.2727 -57.8158 335° Northwest  Level Estimated
09:45PM -24.1616 -57.8726 335° Northwest  Level Estimated
09:46PM -24.0505 -57.9292 335° Northwest  Level Estimated
09:47PM -23.9394 -57.9857 335° Northwest  Level Estimated
09:48PM -23.8283 -58.0421 335° Northwest  Level Estimated
09:49PM -23.7172 -58.0984 335° Northwest  Level Estimated
09:50PM -23.6060 -58.1546 335° Northwest  Level Estimated
09:51PM -23.4948 -58.2108 335° Northwest  Level Estimated
09:52PM -23.3836 -58.2668 335° Northwest  Level Estimated
09:53PM -23.2724 -58.3227 335° Northwest  Level Estimated
09:54PM -23.1612 -58.3786 335° Northwest  Level Estimated
09:55PM -23.0499 -58.4343 335° Northwest  Level Estimated
09:56PM -22.9386 -58.4900 335° Northwest  Level Estimated
09:57PM -22.8273 -58.5455 335° Northwest  Level Estimated
09:58PM -22.7160 -58.6010 335° Northwest  Level Estimated
09:59PM -22.6047 -58.6564 335° Northwest  Level Estimated
10:00PM -22.4933 -58.7117 335° Northwest  Level Estimated
10:01PM -22.3820 -58.7669 335° Northwest  Level Estimated
10:02PM -22.2706 -58.8220 335° Northwest  Level Estimated
10:03PM -22.1591 -58.8771 335° Northwest  Level Estimated
10:04PM -22.0477 -58.9320 335° Northwest  Level Estimated
10:05PM -21.9363 -58.9869 335° Northwest  Level Estimated
10:06PM -21.8248 -59.0416 335° Northwest  Level Estimated
10:07PM -21.7133 -59.0963 335° Northwest  Level Estimated
10:08PM -21.6018 -59.1509 336° Northwest  Level Estimated
10:09PM -21.4903 -59.2054 336° Northwest  Level Estimated
10:10PM -21.3788 -59.2599 336° Northwest  Level Estimated
10:11PM -21.2672 -59.3142 336° Northwest  Level Estimated
10:12PM -21.1556 -59.3685 336° Northwest  Level Estimated
10:13PM -21.0441 -59.4227 336° Northwest  Level Estimated
10:14PM -20.9324 -59.4768 336° Northwest  Level Estimated
10:15PM -20.8208 -59.5308 336° Northwest  Level Estimated
10:16PM -20.7092 -59.5848 336° Northwest  Level Estimated
10:17PM -20.5975 -59.6386 336° Northwest  Level Estimated
10:18PM -20.4858 -59.6924 336° Northwest  Level Estimated
10:19PM -20.3742 -59.7462 336° Northwest  Level Estimated
10:20PM -20.2624 -59.7998 336° Northwest  Level Estimated
10:21PM -20.1507 -59.8533 336° Northwest  Level Estimated
10:22PM -20.0390 -59.9068 336° Northwest  Level Estimated
10:23PM -19.9272 -59.9602 336° Northwest  Level Estimated
10:24PM -19.8155 -60.0135 336° Northwest  Level Estimated
10:25PM -19.7037 -60.0668 336° Northwest  Level Estimated
10:26PM -19.5919 -60.1200 336° Northwest  Level Estimated
10:27PM -19.4800 -60.1731 336° Northwest  Level Estimated
10:28PM -19.3682 -60.2261 336° Northwest  Level Estimated
10:29PM -19.2564 -60.2791 336° Northwest  Level Estimated
10:30PM -19.1445 -60.3319 336° Northwest  Level Estimated
10:31PM -19.0336 -60.3843 336° Northwest  Level Estimated
10:32PM -18.9228 -60.4366 336° Northwest  Level Estimated
10:33PM -18.8119 -60.4888 336° Northwest  Level Estimated
10:34PM -18.7010 -60.5409 336° Northwest  Level Estimated
10:35PM -18.5900 -60.5929 336° Northwest  Level Estimated
10:36PM -18.4791 -60.6449 336° Northwest  Level Estimated
10:37PM -18.3681 -60.6968 336° Northwest  Level Estimated
10:38PM -18.2572 -60.7487 336° Northwest  Level Estimated
10:39PM -18.1462 -60.8005 336° Northwest  Level Estimated
10:40PM -18.0352 -60.8522 336° Northwest  Level Estimated
10:41PM -17.9242 -60.9039 336° Northwest  Level Estimated
10:42PM -17.8132 -60.9555 336° Northwest  Level Estimated
10:43PM -17.7021 -61.0070 336° Northwest  Level Estimated
10:44PM -17.5911 -61.0585 336° Northwest  Level Estimated
10:45PM -17.4800 -61.1099 336° Northwest  Level Estimated
10:46PM -17.3689 -61.1612 336° Northwest  Level Estimated
10:47PM -17.2579 -61.2125 336° Northwest  Level Estimated
10:48PM -17.1467 -61.2637 336° Northwest  Level Estimated
10:49PM -17.0356 -61.3149 336° Northwest  Level Estimated
10:50PM -16.9245 -61.3660 336° Northwest  Level Estimated
10:51PM -16.8134 -61.4170 336° Northwest  Level Estimated
10:52PM -16.7022 -61.4680 336° Northwest  Level Estimated
10:53PM -16.5911 -61.5189 336° Northwest  Level Estimated
10:54PM -16.4799 -61.5698 336° Northwest  Level Estimated
10:55PM -16.3687 -61.6206 336° Northwest  Level Estimated
10:56PM -16.2575 -61.6713 336° Northwest  Level Estimated
10:57PM -16.1463 -61.7220 336° Northwest  Level Estimated
10:58PM -16.0350 -61.7726 336° Northwest  Level Estimated
10:59PM -15.9238 -61.8232 336° Northwest  Level Estimated
11:00PM -15.8126 -61.8737 336° Northwest  Level Estimated
11:01PM -15.7013 -61.9242 336° Northwest  Level Estimated
11:02PM -15.5900 -61.9746 336° Northwest  Level Estimated
11:03PM -15.4788 -62.0249 336° Northwest  Level Estimated
11:04PM -15.3674 -62.0752 336° Northwest  Level Estimated
11:05PM -15.2561 -62.1255 336° Northwest  Level Estimated
11:06PM -15.1448 -62.1757 336° Northwest  Level Estimated
11:07PM -15.0335 -62.2258 336° Northwest  Level Estimated
11:08PM -14.9221 -62.2759 337° Northwest  Level Estimated
11:09PM -14.8108 -62.3259 337° Northwest  Level Estimated
11:10PM -14.6994 -62.3759 337° Northwest  Level Estimated
11:11PM -14.5881 -62.4258 337° Northwest  Level Estimated
11:12PM -14.4767 -62.4757 337° Northwest  Level Estimated
11:13PM -14.3653 -62.5255 337° Northwest  Level Estimated
11:14PM -14.2539 -62.5753 337° Northwest  Level Estimated
11:15PM -14.1425 -62.6250 337° Northwest  Level Estimated
11:16PM -14.0311 -62.6747 337° Northwest  Level Estimated
11:17PM -13.9196 -62.7243 337° Northwest  Level Estimated
11:18PM -13.8086 -62.7738 337° Northwest  Level Estimated
11:19PM -13.6975 -62.8231 337° Northwest  Level Estimated
11:20PM -13.5865 -62.8724 337° Northwest  Level Estimated
11:21PM -13.4754 -62.9217 337° Northwest  Level Estimated
11:22PM -13.3643 -62.9709 337° Northwest  Level Estimated
11:23PM -13.2533 -63.0201 337° Northwest  Level Estimated
11:24PM -13.1421 -63.0692 337° Northwest  Level Estimated
11:25PM -13.0310 -63.1183 337° Northwest  Level Estimated
11:26PM -12.9199 -63.1673 337° Northwest  Level Estimated
11:27PM -12.8088 -63.2163 337° Northwest  Level Estimated
11:28PM -12.6976 -63.2653 337° Northwest  Level Estimated
11:29PM -12.5865 -63.3142 337° Northwest  Level Estimated
11:30PM -12.4754 -63.3631 337° Northwest  Level Estimated
11:31PM -12.3642 -63.4119 337° Northwest  Level Estimated
11:32PM -12.2530 -63.4607 337° Northwest  Level Estimated
11:33PM -12.1418 -63.5094 337° Northwest  Level Estimated
11:34PM -12.0307 -63.5581 337° Northwest  Level Estimated
11:35PM -11.9194 -63.6068 337° Northwest  Level Estimated
11:36PM -11.8082 -63.6554 337° Northwest  Level Estimated
11:37PM -11.6972 -63.7039 337° Northwest  Level Estimated
11:38PM -11.5862 -63.7524 337° Northwest  Level Estimated
11:39PM -11.4752 -63.8008 337° Northwest  Level Estimated
11:40PM -11.3641 -63.8492 337° Northwest  Level Estimated
11:41PM -11.2531 -63.8975 337° Northwest  Level Estimated
11:42PM -11.1420 -63.9458 337° Northwest  Level Estimated
11:43PM -11.0310 -63.9941 337° Northwest  Level Estimated
11:44PM -10.9199 -64.0423 337° Northwest  Level Estimated
11:45PM -10.8088 -64.0905 337° Northwest  Level Estimated
11:46PM -10.6978 -64.1387 337° Northwest  Level Estimated
11:47PM -10.5867 -64.1868 337° Northwest  Level Estimated
11:48PM -10.4756 -64.2349 337° Northwest  Level Estimated
11:49PM -10.3645 -64.2830 337° Northwest  Level Estimated
11:50PM -10.2533 -64.3310 337° Northwest  Level Estimated
11:51PM -10.1422 -64.3790 337° Northwest  Level Estimated
11:52PM -10.0311 -64.4269 337° Northwest  Level Estimated
11:53PM -9.9200 -64.4749 337° Northwest  Level Estimated
11:54PM -9.8088 -64.5227 337° Northwest  Level Estimated
11:55PM -9.6977 -64.5706 337° Northwest  Level Estimated
11:56PM -9.5865 -64.6184 337° Northwest  Level Estimated
11:57PM -9.4754 -64.6662 337° Northwest  Level Estimated
11:58PM -9.3642 -64.7140 337° Northwest  Level Estimated
11:59PM -9.2530 -64.7617 337° Northwest  Level Estimated
12:00AM -9.1418 -64.8094 337° Northwest  Level Estimated
12:01AM -9.0307 -64.8571 337° Northwest  Level Estimated
12:02AM -8.9195 -64.9047 337° Northwest  Level Estimated
12:03AM -8.8083 -64.9523 337° Northwest  Level Estimated
12:04AM -8.6971 -64.9999 337° Northwest  Level Estimated
12:05AM -8.5858 -65.0475 337° Northwest  Level Estimated
12:06AM -8.4746 -65.0950 337° Northwest  Level Estimated
12:07AM -8.3634 -65.1425 337° Northwest  Level Estimated
12:08AM -8.2522 -65.1900 337° Northwest  Level Estimated
12:09AM -8.1413 -65.2373 337° Northwest  Level Estimated
12:10AM -8.0305 -65.2845 337° Northwest  Level Estimated
12:11AM -7.9197 -65.3318 337° Northwest  Level Estimated
12:12AM -7.8088 -65.3790 337° Northwest  Level Estimated
12:13AM -7.6980 -65.4261 337° Northwest  Level Estimated
12:14AM -7.5871 -65.4733 337° Northwest  Level Estimated
12:15AM -7.4762 -65.5204 337° Northwest  Level Estimated
12:16AM -7.3654 -65.5675 337° Northwest  Level Estimated
12:17AM -7.2545 -65.6146 337° Northwest  Level Estimated
12:18AM -7.1436 -65.6617 337° Northwest  Level Estimated
12:19AM -7.0327 -65.7087 337° Northwest  Level Estimated
12:20AM -6.9219 -65.7557 337° Northwest  Level Estimated
12:21AM -6.8110 -65.8027 337° Northwest  Level Estimated
12:22AM -6.7001 -65.8497 337° Northwest  Level Estimated
12:23AM -6.5892 -65.8966 337° Northwest  Level Estimated
12:24AM -6.4783 -65.9436 337° Northwest  Level Estimated
12:25AM -6.3673 -65.9905 337° Northwest  Level Estimated
12:25AM -3.9840 -59.9820 337° Northwest 470 541 35,000  Level FlightAware
12:25AM -3.8970 -59.9910 354° North 471 542 35,000  Level FlightAware
12:26AM -3.8120 -59.9980 355° North 471 542 35,000  Level FlightAware
12:27AM -3.7130 -60.0080 354° North 470 541 35,000 60 Level FlightAware
12:27AM -3.6220 -60.0160 355° North 469 540 35,100 360 Climbing FlightAware
12:28AM -3.5350 -60.0250 354° North 463 533 35,500 540 Climbing FlightAware
12:29AM -3.4380 -60.0340 355° North 459 528 35,900 300 Climbing FlightAware
12:29AM -3.3520 -60.0420 355° North 461 531 36,000 60 Climbing FlightAware
12:30AM -3.2580 -60.0510 355° North 466 536 36,000  Level FlightAware
12:31AM -3.1710 -60.0590 355° North 469 540 36,000  Level FlightAware
12:32AM -3.0730 -60.0680 355° North 468 539 36,000  Level FlightAware
12:32AM -2.9880 -60.0890 346° North 464 534 36,000  Level FlightAware
12:33AM -2.9100 -60.1220 337° Northwest 463 533 36,000  Level FlightAware
12:34AM -2.8230 -60.1610 336° Northwest 464 534 36,000  Level FlightAware
12:34AM -2.7430 -60.1960 336° Northwest 466 536 36,000  Level FlightAware
12:35AM -2.6520 -60.2360 336° Northwest 466 536 36,000  Level FlightAware
12:36AM -2.5720 -60.2720 336° Northwest 467 537 36,000  Level FlightAware
12:36AM -2.4930 -60.3070 336° Northwest 467 537 36,000  Level FlightAware
12:37AM -2.4050 -60.3450 337° Northwest 467 537 36,000  Level FlightAware
12:38AM -2.3260 -60.3810 336° Northwest 467 537 36,000  Level FlightAware
12:39AM -2.2350 -60.4200 337° Northwest 467 537 36,000  Level FlightAware
12:39AM -2.1550 -60.4560 336° Northwest 466 536 36,000  Level FlightAware
12:40AM -2.0760 -60.4910 336° Northwest 465 535 36,000  Level FlightAware
12:41AM -1.9910 -60.5290 336° Northwest 465 535 36,000  Level FlightAware
12:41AM -1.9110 -60.5640 336° Northwest 465 535 36,000  Level FlightAware
12:42AM -1.8230 -60.6030 336° Northwest 465 535 36,000  Level FlightAware
12:43AM -1.7410 -60.6390 336° Northwest 466 536 36,000  Level FlightAware
12:43AM -1.6610 -60.6750 336° Northwest 466 536 36,000  Level FlightAware
12:44AM -1.5770 -60.7120 336° Northwest 466 536 36,000  Level FlightAware
12:45AM -1.5030 -60.7440 337° Northwest 467 537 36,000  Level FlightAware
12:46AM -1.4080 -60.7870 336° Northwest 467 537 36,000  Level FlightAware
12:46AM -1.3260 -60.8230 336° Northwest 467 537 36,000  Level FlightAware
12:47AM -1.2460 -60.8580 336° Northwest 467 537 36,000  Level FlightAware
12:48AM -1.1630 -60.8950 336° Northwest 468 539 36,000  Level FlightAware
12:48AM -1.0790 -60.9320 336° Northwest 468 539 36,000  Level FlightAware
12:49AM -1.0000 -60.9670 336° Northwest 467 537 36,000  Level FlightAware
12:50AM -0.9280 -61.0000 335° Northwest 466 536 36,000  Level FlightAware
12:50AM -0.8620 -61.0310 335° Northwest 466 536 36,000  Level FlightAware
12:51AM -0.7790 -61.0700 335° Northwest 466 536 36,000  Level FlightAware
12:52AM -0.7120 -61.1010 335° Northwest 466 536 36,000  Level FlightAware
12:53AM -0.6460 -61.1320 335° Northwest 466 536 36,000  Level FlightAware
12:53AM -0.5800 -61.1630 335° Northwest 466 536 36,000  Level FlightAware
12:54AM -0.5130 -61.1940 335° Northwest 466 536 36,000  Level FlightAware
12:55AM -0.4300 -61.2330 335° Northwest 466 536 36,000  Level FlightAware
12:55AM -0.3640 -61.2640 335° Northwest 466 536 36,000  Level FlightAware
12:56AM -0.2970 -61.2950 335° Northwest 466 536 36,000  Level FlightAware
12:57AM -0.2310 -61.3260 335° Northwest 466 536 36,000  Level FlightAware
12:57AM -0.1640 -61.3560 336° Northwest 466 536 36,000  Level FlightAware
12:58AM -0.0810 -61.3950 335° Northwest 466 536 36,000  Level FlightAware
12:59AM -0.0150 -61.4260 335° Northwest 466 536 36,000  Level FlightAware
01:01AM 0.1481 -61.5350 326° Northwest  Level Estimated
01:02AM 0.2479 -61.6018 326° Northwest  Level Estimated
01:03AM 0.3477 -61.6685 326° Northwest  Level Estimated
01:04AM 0.4475 -61.7353 326° Northwest  Level Estimated
01:05AM 0.5474 -61.8020 326° Northwest  Level Estimated
01:06AM 0.6472 -61.8688 326° Northwest  Level Estimated
01:07AM 0.7470 -61.9356 326° Northwest  Level Estimated
01:08AM 0.8469 -62.0023 326° Northwest  Level Estimated
01:09AM 0.9467 -62.0691 326° Northwest  Level Estimated
01:10AM 1.0465 -62.1359 326° Northwest  Level Estimated
01:11AM 1.1464 -62.2026 326° Northwest  Level Estimated
01:12AM 1.2462 -62.2694 326° Northwest  Level Estimated
01:13AM 1.3460 -62.3362 326° Northwest  Level Estimated
01:14AM 1.4458 -62.4030 326° Northwest  Level Estimated
01:15AM 1.5456 -62.4698 326° Northwest  Level Estimated
01:16AM 1.6454 -62.5366 326° Northwest  Level Estimated
01:17AM 1.7452 -62.6034 326° Northwest  Level Estimated
01:18AM 1.8451 -62.6702 326° Northwest  Level Estimated
01:19AM 1.9449 -62.7370 326° Northwest  Level Estimated
01:20AM 2.0447 -62.8039 326° Northwest  Level Estimated
01:21AM 2.1445 -62.8707 326° Northwest  Level Estimated
01:22AM 2.2443 -62.9375 326° Northwest  Level Estimated
01:23AM 2.3441 -63.0044 326° Northwest  Level Estimated
01:24AM 2.4439 -63.0713 326° Northwest  Level Estimated
01:25AM 2.5437 -63.1382 326° Northwest  Level Estimated
01:26AM 2.6435 -63.2051 326° Northwest  Level Estimated
01:27AM 2.7432 -63.2719 326° Northwest  Level Estimated
01:28AM 2.8430 -63.3389 326° Northwest  Level Estimated
01:29AM 2.9428 -63.4058 326° Northwest  Level Estimated
01:30AM 3.0426 -63.4727 326° Northwest  Level Estimated
01:31AM 3.1423 -63.5397 326° Northwest  Level Estimated
01:32AM 3.2421 -63.6066 326° Northwest  Level Estimated
01:33AM 3.3419 -63.6736 326° Northwest  Level Estimated
01:34AM 3.4416 -63.7406 326° Northwest  Level Estimated
01:35AM 3.5413 -63.8076 326° Northwest  Level Estimated
01:36AM 3.6411 -63.8746 326° Northwest  Level Estimated
01:37AM 3.7408 -63.9416 326° Northwest  Level Estimated
01:38AM 3.8406 -64.0087 326° Northwest  Level Estimated
01:39AM 3.9403 -64.0757 326° Northwest  Level Estimated
01:40AM 4.0400 -64.1428 326° Northwest  Level Estimated
01:41AM 4.1397 -64.2099 326° Northwest  Level Estimated
01:42AM 4.2394 -64.2770 326° Northwest  Level Estimated
01:43AM 4.3391 -64.3441 326° Northwest  Level Estimated
01:44AM 4.4388 -64.4113 326° Northwest  Level Estimated
01:45AM 4.5385 -64.4784 326° Northwest  Level Estimated
01:46AM 4.6382 -64.5456 326° Northwest  Level Estimated
01:47AM 4.7379 -64.6128 326° Northwest  Level Estimated
01:48AM 4.8376 -64.6800 326° Northwest  Level Estimated
01:49AM 4.9373 -64.7473 326° Northwest  Level Estimated
01:50AM 5.0369 -64.8145 326° Northwest  Level Estimated
01:51AM 5.1366 -64.8818 326° Northwest  Level Estimated
01:52AM 5.2362 -64.9491 326° Northwest  Level Estimated
01:53AM 5.3359 -65.0164 326° Northwest  Level Estimated
01:54AM 5.4355 -65.0838 326° Northwest  Level Estimated
01:55AM 5.5351 -65.1511 326° Northwest  Level Estimated
01:56AM 5.6347 -65.2185 326° Northwest  Level Estimated
01:57AM 5.7344 -65.2859 326° Northwest  Level Estimated
01:58AM 5.8340 -65.3534 326° Northwest  Level Estimated
01:59AM 5.9336 -65.4208 326° Northwest  Level Estimated
02:00AM 6.0332 -65.4883 326° Northwest  Level Estimated
02:01AM 6.1327 -65.5558 326° Northwest  Level Estimated
02:02AM 6.2323 -65.6234 326° Northwest  Level Estimated
02:03AM 6.3319 -65.6909 326° Northwest  Level Estimated
02:04AM 6.4314 -65.7585 326° Northwest  Level Estimated
02:05AM 6.5310 -65.8261 326° Northwest  Level Estimated
02:06AM 6.6305 -65.8938 326° Northwest  Level Estimated
02:07AM 6.7300 -65.9614 326° Northwest  Level Estimated
02:08AM 6.8295 -66.0291 326° Northwest  Level Estimated
02:09AM 6.9290 -66.0968 326° Northwest  Level Estimated
02:10AM 7.0285 -66.1646 326° Northwest  Level Estimated
02:11AM 7.1280 -66.2324 326° Northwest  Level Estimated
02:12AM 7.2275 -66.3002 326° Northwest  Level Estimated
02:13AM 7.3270 -66.3680 326° Northwest  Level Estimated
02:14AM 7.4264 -66.4359 326° Northwest  Level Estimated
02:15AM 7.5259 -66.5038 326° Northwest  Level Estimated
02:16AM 7.6253 -66.5717 326° Northwest  Level Estimated
02:17AM 7.7248 -66.6397 326° Northwest  Level Estimated
02:18AM 7.8242 -66.7077 326° Northwest  Level Estimated
02:19AM 7.9236 -66.7757 326° Northwest  Level Estimated
02:20AM 8.0230 -66.8438 326° Northwest  Level Estimated
02:21AM 8.1223 -66.9118 326° Northwest  Level Estimated
02:22AM 8.2217 -66.9800 326° Northwest  Level Estimated
02:23AM 8.3211 -67.0481 326° Northwest  Level Estimated
02:24AM 8.4204 -67.1163 326° Northwest  Level Estimated
02:25AM 8.5198 -67.1846 326° Northwest  Level Estimated
02:26AM 8.6191 -67.2528 326° Northwest  Level Estimated
02:27AM 8.7184 -67.3211 326° Northwest  Level Estimated
02:28AM 8.8170 -67.3890 326° Northwest  Level Estimated
02:29AM 8.9156 -67.4569 326° Northwest  Level Estimated
02:30AM 9.0141 -67.5248 326° Northwest  Level Estimated
02:31AM 9.1127 -67.5928 326° Northwest  Level Estimated
02:32AM 9.2112 -67.6608 326° Northwest  Level Estimated
02:33AM 9.3098 -67.7288 326° Northwest  Level Estimated
02:34AM 9.4083 -67.7969 326° Northwest  Level Estimated
02:35AM 9.5068 -67.8650 326° Northwest  Level Estimated
02:36AM 9.6053 -67.9331 326° Northwest  Level Estimated
02:37AM 9.7038 -68.0013 326° Northwest  Level Estimated
02:38AM 9.8022 -68.0695 326° Northwest  Level Estimated
02:39AM 9.9007 -68.1378 326° Northwest  Level Estimated
02:40AM 9.9991 -68.2061 326° Northwest  Level Estimated
02:41AM 10.0975 -68.2745 326° Northwest  Level Estimated
02:42AM 10.1959 -68.3429 326° Northwest  Level Estimated
02:43AM 10.2943 -68.4113 326° Northwest  Level Estimated
02:44AM 10.3927 -68.4798 326° Northwest  Level Estimated
02:45AM 10.4911 -68.5483 326° Northwest  Level Estimated
02:46AM 10.5894 -68.6169 326° Northwest  Level Estimated
02:47AM 10.6878 -68.6855 326° Northwest  Level Estimated
02:48AM 10.7861 -68.7542 326° Northwest  Level Estimated
02:49AM 10.8844 -68.8229 326° Northwest  Level Estimated
02:50AM 10.9827 -68.8916 326° Northwest  Level Estimated
02:51AM 11.0810 -68.9604 326° Northwest  Level Estimated
02:52AM 11.1792 -69.0293 326° Northwest  Level Estimated
02:53AM 11.2775 -69.0982 325° Northwest  Level Estimated
02:54AM 11.3757 -69.1671 325° Northwest  Level Estimated
02:55AM 11.4739 -69.2361 325° Northwest  Level Estimated
02:56AM 11.5721 -69.3051 325° Northwest  Level Estimated
02:57AM 11.6703 -69.3742 325° Northwest  Level Estimated
02:58AM 11.7685 -69.4433 325° Northwest  Level Estimated
02:59AM 11.8666 -69.5125 325° Northwest  Level Estimated
03:00AM 11.9647 -69.5817 325° Northwest  Level Estimated
03:01AM 12.0628 -69.6510 325° Northwest  Level Estimated
03:02AM 12.1609 -69.7203 325° Northwest  Level Estimated
03:03AM 12.2590 -69.7897 325° Northwest  Level Estimated
03:04AM 12.3571 -69.8591 325° Northwest  Level Estimated
03:05AM 12.4551 -69.9286 325° Northwest  Level Estimated
03:06AM 12.5532 -69.9981 325° Northwest  Level Estimated
03:07AM 12.6512 -70.0677 325° Northwest  Level Estimated
03:08AM 12.7492 -70.1374 325° Northwest  Level Estimated
03:09AM 12.8471 -70.2071 325° Northwest  Level Estimated
03:10AM 12.9451 -70.2768 325° Northwest  Level Estimated
03:11AM 13.0430 -70.3466 325° Northwest  Level Estimated
03:12AM 13.1409 -70.4165 325° Northwest  Level Estimated
03:13AM 13.2388 -70.4864 325° Northwest  Level Estimated
03:14AM 13.3367 -70.5564 325° Northwest  Level Estimated
03:15AM 13.4346 -70.6264 325° Northwest  Level Estimated
03:16AM 13.5324 -70.6965 325° Northwest  Level Estimated
03:17AM 13.6302 -70.7666 325° Northwest  Level Estimated
03:18AM 13.7280 -70.8368 325° Northwest  Level Estimated
03:19AM 13.8258 -70.9071 325° Northwest  Level Estimated
03:20AM 13.9236 -70.9774 325° Northwest  Level Estimated
03:21AM 14.0213 -71.0478 325° Northwest  Level Estimated
03:22AM 14.1190 -71.1182 325° Northwest  Level Estimated
03:23AM 14.2167 -71.1887 325° Northwest  Level Estimated
03:24AM 14.3144 -71.2593 325° Northwest  Level Estimated
03:25AM 14.4121 -71.3299 325° Northwest  Level Estimated
03:26AM 14.5099 -71.4007 325° Northwest  Level Estimated
03:27AM 14.6077 -71.4716 325° Northwest  Level Estimated
03:28AM 14.7054 -71.5425 325° Northwest  Level Estimated
03:29AM 14.8032 -71.6135 325° Northwest  Level Estimated
03:30AM 14.9009 -71.6846 325° Northwest  Level Estimated
03:31AM 14.9986 -71.7557 325° Northwest  Level Estimated
03:32AM 15.0963 -71.8269 325° Northwest  Level Estimated
03:33AM 15.1940 -71.8982 325° Northwest  Level Estimated
03:34AM 15.2916 -71.9695 325° Northwest  Level Estimated
03:35AM 15.3892 -72.0409 325° Northwest  Level Estimated
03:36AM 15.4868 -72.1123 325° Northwest  Level Estimated
03:37AM 15.5844 -72.1839 325° Northwest  Level Estimated
03:38AM 15.6819 -72.2554 325° Northwest  Level Estimated
03:39AM 15.7794 -72.3271 325° Northwest  Level Estimated
03:40AM 15.8769 -72.3988 325° Northwest  Level Estimated
03:41AM 15.9744 -72.4706 325° Northwest  Level Estimated
03:42AM 16.0718 -72.5425 325° Northwest  Level Estimated
03:43AM 16.1693 -72.6144 325° Northwest  Level Estimated
03:44AM 16.2667 -72.6864 325° Northwest  Level Estimated
03:45AM 16.3641 -72.7585 325° Northwest  Level Estimated
03:46AM 16.4614 -72.8307 325° Northwest  Level Estimated
03:47AM 16.5587 -72.9029 325° Northwest  Level Estimated
03:48AM 16.6560 -72.9752 325° Northwest  Level Estimated
03:49AM 16.7533 -73.0476 325° Northwest  Level Estimated
03:50AM 16.8506 -73.1200 325° Northwest  Level Estimated
03:51AM 16.9478 -73.1926 324° Northwest  Level Estimated
03:52AM 17.0498 -73.2687 324° Northwest  Level Estimated
03:53AM 17.1517 -73.3449 324° Northwest  Level Estimated
03:54AM 17.2536 -73.4213 324° Northwest  Level Estimated
03:55AM 17.3555 -73.4977 324° Northwest  Level Estimated
03:56AM 17.4573 -73.5742 324° Northwest  Level Estimated
03:56AM 19.1322 -72.6000 324° Northwest 484 557 36,000  Level Miami Center
03:57AM 17.5592 -73.6507 324° Northwest  Level Estimated
03:57AM 19.2317 -72.6631 329° Northwest 449 517 36,000  Level Miami Center
03:58AM 17.6561 -73.7237 324° Northwest  Level Estimated
03:58AM 19.3292 -72.7214 331° Northwest 421 484 36,000  Level Miami Center
03:59AM 17.7529 -73.7968 324° Northwest  Level Estimated
03:59AM 19.4244 -72.7825 329° Northwest 408 470 36,000  Level Miami Center
04:00AM 17.8498 -73.8699 324° Northwest  Level Estimated
04:00AM 19.5239 -72.8411 331° Northwest 403 464 36,000  Level Miami Center
04:01AM 17.9466 -73.9431 324° Northwest  Level Estimated
04:01AM 19.6214 -72.9000 330° Northwest 408 470 36,000  Level Miami Center
04:02AM 19.7208 -72.9589 331° Northwest 408 470 36,000  Level Miami Center
04:03AM 19.8183 -73.0222 329° Northwest 408 470 36,000  Level Miami Center
04:04AM 19.9136 -73.0792 331° Northwest 408 470 36,000  Level Miami Center
04:05AM 20.0108 -73.1383 330° Northwest 408 470 36,000  Level Miami Center
04:06AM 20.1061 -73.1975 330° Northwest 408 470 36,000  Level Miami Center
04:07AM 20.1953 -73.2681 323° Northwest 408 470 36,000 180 Level Miami Center
04:08AM 20.2825 -73.3453 320° Northwest 402 463 36,400 540 Climbing Miami Center
04:09AM 20.3636 -73.4208 319° Northwest 396 456 37,100 660 Climbing Miami Center
04:10AM 20.4422 -73.4942 319° Northwest 391 450 37,800 420 Climbing Miami Center
04:11AM 20.5233 -73.5717 318° Northwest 391 450 38,000 60 Climbing Miami Center
04:12AM 20.6083 -73.6494 319° Northwest 397 457 38,000  Level Miami Center
04:13AM 20.6892 -73.7253 319° Northwest 397 457 38,000  Level Miami Center
04:14AM 20.7722 -73.8008 320° Northwest 392 451 38,000  Level Miami Center
04:15AM 20.8508 -73.8747 319° Northwest 392 451 38,000  Level Miami Center
04:16AM 20.9336 -73.9506 319° Northwest 392 451 38,000  Level Miami Center
04:17AM 21.0122 -74.0244 319° Northwest 392 451 38,000  Level Miami Center
04:18AM 21.0972 -74.1028 319° Northwest 392 451 38,000  Level Miami Center
04:19AM 21.1758 -74.1792 318° Northwest 392 451 38,000  Level Miami Center
04:20AM 21.2519 -74.2467 320° Northwest 397 457 38,000  Level Miami Center
04:21AM 21.3328 -74.3231 319° Northwest 392 451 38,000  Level Miami Center
04:22AM 21.4153 -74.3994 319° Northwest 392 451 38,000  Level Miami Center
04:23AM 21.4958 -74.4761 318° Northwest 397 457 38,000  Level Miami Center
04:24AM 21.5783 -74.5506 320° Northwest 392 451 38,000  Level Miami Center
04:25AM 21.6611 -74.6272 319° Northwest 397 457 38,000  Level Miami Center
04:26AM 21.7458 -74.7175 315° West 397 457 38,000  Level Miami Center
04:27AM 21.8306 -74.7944 320° Northwest 392 451 38,000  Level Miami Center
04:28AM 21.9108 -74.8736 318° Northwest 392 451 38,000  Level Miami Center
04:29AM 21.9933 -74.9531 318° Northwest 392 451 38,000  Level Miami Center
04:30AM 22.0608 -75.0125 321° Northwest 398 458 38,000  Level Miami Center
04:31AM 22.1414 -75.1056 313° West 392 451 38,000  Level Miami Center
04:32AM 22.2092 -75.1944 309° West 392 451 38,000  Level Miami Center
04:33AM 22.2750 -75.2903 307° West 392 451 38,000  Level Miami Center
04:34AM 22.3406 -75.3814 308° West 392 451 38,000  Level Miami Center
04:35AM 22.4083 -75.4706 309° West 387 445 38,000  Level Miami Center
04:36AM 22.4761 -75.5619 309° West 387 445 38,000  Level Miami Center
04:37AM 22.5436 -75.6536 309° West 387 445 38,000  Level Miami Center
04:38AM 22.6092 -75.7453 308° West 387 445 38,000  Level Miami Center
04:39AM 22.6767 -75.8369 309° West 387 445 38,000  Level Miami Center
04:40AM 22.7419 -75.9286 308° West 387 445 38,000  Level Miami Center
04:41AM 22.8072 -76.0206 308° West 387 445 38,000  Level Miami Center
04:42AM 22.8747 -76.1103 309° West 387 445 38,000  Level Miami Center
04:43AM 22.9419 -76.2025 308° West 387 445 38,000  Level Miami Center
04:44AM 23.0069 -76.2925 308° West 387 445 38,000  Level Miami Center
04:45AM 23.0722 -76.3869 307° West 387 445 38,000  Level Miami Center
04:46AM 23.1372 -76.4747 309° West 387 445 38,000  Level Miami Center
04:47AM 23.2042 -76.5672 308° West 387 445 38,000  Level Miami Center
04:48AM 23.2756 -76.6667 308° West 387 445 38,000  Level Miami Center
04:49AM 23.3403 -76.7594 307° West 387 445 38,000  Level Miami Center
04:50AM 23.4072 -76.8522 308° West 387 445 38,000  Level Miami Center
04:51AM 23.4700 -76.9428 307° West 387 445 38,000  Level Miami Center
04:52AM 23.5325 -77.0333 307° West 387 445 38,000  Level Miami Center
04:53AM 23.5994 -77.1242 309° West 387 445 38,000  Level Miami Center
04:54AM 23.6556 -77.2106 305° West 387 445 38,000  Level Miami Center
04:55AM 23.7200 -77.3014 308° West 380 437 38,000  Level Miami Center
04:56AM 23.7847 -77.3925 308° West 385 443 38,000  Level Miami Center
04:57AM 23.8511 -77.4858 308° West 390 449 38,000  Level Miami Center
04:58AM 23.9133 -77.5794 306° West 390 449 38,000  Level Miami Center
04:59AM 23.9797 -77.6708 308° West 390 449 38,000  Level Miami Center
05:05AM 24.3830 -78.2380 308° West 382 440 38,000  Level FlightAware
05:06AM 24.4320 -78.3080 308° West 381 438 38,000  Level FlightAware
05:07AM 24.4750 -78.3720 306° West 382 440 38,000  Level FlightAware
05:07AM 24.5230 -78.4410 307° West 383 441 38,000  Level FlightAware
05:08AM 24.5670 -78.5050 307° West 383 441 38,000  Level FlightAware
05:09AM 24.6090 -78.5670 307° West 383 441 38,000  Level FlightAware
05:09AM 24.6600 -78.6400 308° West 383 441 38,000 -240 Level FlightAware
05:10AM 24.7030 -78.7030 307° West 381 438 37,700 -1,380 Descending FlightAware
05:11AM 24.7500 -78.7730 306° West 381 438 36,100 -2,940 Descending FlightAware
05:11AM 24.7930 -78.8360 307° West 403 464 33,600 -2,640 Descending FlightAware
05:12AM 24.8460 -78.9140 307° West 406 467 32,200 -3,540 Descending FlightAware
05:13AM 24.9070 -79.0030 307° West 422 486 27,700 -4,680 Descending FlightAware
05:14AM 24.9570 -79.0760 307° West 439 505 25,200 -3,000 Descending FlightAware
05:14AM 25.0070 -79.1500 307° West 425 489 23,700 -1,860 Descending FlightAware
05:15AM 25.0690 -79.2430 306° West 395 455 22,300 -1,680 Descending FlightAware
05:16AM 25.1150 -79.3100 307° West 389 448 20,900 -1,860 Descending FlightAware
05:17AM 25.1570 -79.3720 307° West 382 440 19,700 -2,160 Descending FlightAware
05:18AM 25.2070 -79.4470 306° West 376 433 17,900 -2,160 Descending FlightAware
05:18AM 25.2480 -79.5090 306° West 364 419 16,700 -1,920 Descending FlightAware
05:19AM 25.2940 -79.5770 307° West 361 415 15,200 -1,980 Descending FlightAware
05:20AM 25.3340 -79.6370 306° West 356 410 13,900 -1,920 Descending FlightAware
05:20AM 25.3740 -79.6960 307° West 349 402 12,700 -1,500 Descending FlightAware
05:21AM 25.4160 -79.7590 306° West 332 382 11,800 -600 Descending FlightAware
05:22AM 25.4560 -79.8200 306° West 332 382 11,800  Level FlightAware
05:22AM 25.4930 -79.8760 306° West 333 383 11,800  Level FlightAware
05:23AM 25.5280 -79.9300 306° West 330 380 11,800 -480 Level FlightAware
05:24AM 25.5690 -79.9920 306° West 309 356 11,200 -780 Descending FlightAware
05:25AM 25.6020 -80.0410 307° West 288 331 10,700 -1,080 Descending FlightAware
05:25AM 25.6330 -80.0900 305° West 284 327 9,800 -1,320 Descending FlightAware
05:26AM 25.6570 -80.1250 307° West 281 323 9,200 -1,200 Descending FlightAware
05:26AM 25.6680 -80.1430 304° West 281 323 8,900 -1,380 Descending FlightAware
05:26AM 25.6870 -80.1830 298° West 284 327 8,200 -1,320 Descending FlightAware
05:27AM 25.6970 -80.2170 288° West 282 325 7,700 -1,380 Descending FlightAware
05:27AM 25.7020 -80.2370 286° West 275 316 7,300 -1,500 Descending FlightAware
05:28AM 25.7120 -80.2780 285° West 263 303 6,600 -1,680 Descending FlightAware
05:28AM 25.7210 -80.3090 288° West 262 302 5,800 -1,980 Descending FlightAware
05:29AM 25.7290 -80.3490 283° West 266 306 4,800 -1,740 Descending FlightAware
05:29AM 25.7280 -80.4050 269° West 267 307 3,800 -1,320 Descending FlightAware
05:30AM 25.7270 -80.4460 268° West 265 305 3,300 -1,140 Descending FlightAware
05:30AM 25.7380 -80.4740 294° West 255 293 2,800 -1,080 Descending FlightAware
05:30AM 25.7530 -80.4830 332° Northwest 235 270 2,600 -600 Descending FlightAware
05:30AM 25.7580 -80.4840 350° North 229 264 2,600 -600 Level FlightAware
05:31AM 25.7800 -80.4730 24° Northeast 199 229 2,300 -600 Descending FlightAware
05:31AM 25.7940 -80.4530 52° Northeast 170 196 2,100 -780 Descending FlightAware
05:32AM 25.8010 -80.4300 71° East 148 170 1,600 -1,020 Descending FlightAware
05:32AM 25.8030 -80.4130 83° East 130 150 1,200 -1,020 Descending FlightAware
05:33AM 25.8050 -80.3930 84° East 129 148 700 -840 Descending FlightAware
05:33AM 25.8050 -80.3730 90° East 129 148 400 -600 Descending FlightAware
05:34AM 25.8070 -80.3420 86° East 138 159 -480 Descending FlightAware